createdAt,value
2023-04-16T00:04:26.397Z,2.25
2023-04-16T00:09:28.669Z,1.88
2023-04-16T00:14:30.768Z,2.72
2023-04-16T00:19:32.834Z,2.42
2023-04-16T00:24:34.967Z,2.67
2023-04-16T00:29:36.937Z,2.70
2023-04-16T00:34:38.990Z,2.58
2023-04-16T00:39:41.025Z,2.97
2023-04-16T00:44:43.040Z,3.10
2023-04-16T00:49:45.321Z,2.78
2023-04-16T00:54:47.490Z,3.30
2023-04-16T00:59:49.782Z,3.65
2023-04-16T01:04:52.637Z,3.72
2023-04-16T01:09:55.142Z,3.80
2023-04-16T01:14:57.366Z,3.08
2023-04-16T01:20:00.666Z,3.58
2023-04-16T01:25:02.773Z,3.17
2023-04-16T01:30:05.602Z,2.78
2023-04-16T01:35:19.179Z,4.25
2023-04-16T01:40:21.407Z,3.78
2023-04-16T01:45:23.485Z,3.28
2023-04-16T01:50:25.512Z,4.45
2023-04-16T01:55:27.533Z,4.15
2023-04-16T02:00:29.729Z,5.05
2023-04-16T02:05:31.859Z,5.05
2023-04-16T02:10:33.881Z,4.22
2023-04-16T02:15:36.416Z,5.88
2023-04-16T02:20:43.204Z,5.40
2023-04-16T02:25:46.943Z,4.28
2023-04-16T02:30:50.276Z,4.43
2023-04-16T02:35:54.148Z,4.30
2023-04-16T02:40:56.374Z,4.18
2023-04-16T02:45:59.333Z,4.95
2023-04-16T02:51:01.583Z,4.32
2023-04-16T02:56:03.725Z,5.60
2023-04-16T03:01:05.840Z,5.80
2023-04-16T03:06:07.996Z,6.43
2023-04-16T03:11:10.102Z,7.22
2023-04-16T03:16:12.384Z,6.00
2023-04-16T03:21:14.622Z,7.10
2023-04-16T03:26:16.609Z,5.88
2023-04-16T03:31:18.676Z,6.75
2023-04-16T03:36:22.807Z,8.95
2023-04-16T03:41:24.887Z,9.45
2023-04-16T03:46:27.101Z,7.05
2023-04-16T03:51:29.823Z,7.07
2023-04-16T03:56:32.355Z,8.82
2023-04-16T04:01:34.692Z,7.28
2023-04-16T04:06:39.504Z,7.32
2023-04-16T04:11:42.374Z,6.30
2023-04-16T04:16:44.870Z,6.00
2023-04-16T04:21:47.112Z,6.50
2023-04-16T04:26:49.385Z,5.72
2023-04-16T04:31:51.603Z,6.15
2023-04-16T04:36:53.869Z,5.43
2023-04-16T04:41:57.384Z,6.20
2023-04-16T04:47:00.505Z,6.05
2023-04-16T04:52:02.881Z,5.45
2023-04-16T04:57:06.602Z,6.65
2023-04-16T05:02:09.564Z,6.05
2023-04-16T05:07:11.547Z,6.13
2023-04-16T05:12:13.538Z,6.35
2023-04-16T05:17:15.900Z,5.63
2023-04-16T05:22:18.893Z,6.65
2023-04-16T05:27:21.053Z,7.05
2023-04-16T05:32:26.258Z,7.20
2023-04-16T05:37:28.384Z,7.57
2023-04-16T05:42:30.441Z,7.80
2023-04-16T05:47:32.448Z,6.88
2023-04-16T05:52:34.528Z,7.20
2023-04-16T05:57:36.540Z,7.57
2023-04-16T06:02:38.798Z,7.97
2023-04-16T06:07:40.927Z,7.95
2023-04-16T06:12:42.993Z,7.70
2023-04-16T06:17:45.231Z,7.32
2023-04-16T06:22:47.287Z,6.35
2023-04-16T06:27:49.260Z,8.05
2023-04-16T06:32:51.404Z,7.25
2023-04-16T06:37:53.531Z,6.50
2023-04-16T06:42:55.831Z,7.72
2023-04-16T06:47:58.976Z,8.35
2023-04-16T06:53:01.098Z,8.50
2023-04-16T06:58:03.556Z,6.90
2023-04-16T07:03:05.761Z,7.45
2023-04-16T07:08:07.980Z,8.02
2023-04-16T07:13:10.086Z,6.75
2023-04-16T07:18:12.090Z,7.50
2023-04-16T07:23:14.230Z,8.63
2023-04-16T07:28:19.201Z,5.78
2023-04-16T07:33:21.310Z,8.02
2023-04-16T07:38:23.418Z,8.63
2023-04-16T07:43:25.498Z,8.63
2023-04-16T07:48:27.601Z,8.93
2023-04-16T07:53:29.681Z,10.07
2023-04-16T07:58:31.656Z,10.02
2023-04-16T08:03:33.843Z,9.70
2023-04-16T08:08:36.192Z,9.88
2023-04-16T08:13:38.248Z,10.32
2023-04-16T08:18:40.544Z,9.82
2023-04-16T08:23:42.712Z,11.40
2023-04-16T08:28:44.702Z,10.25
2023-04-16T08:33:46.695Z,11.13
2023-04-16T08:38:48.681Z,10.70
2023-04-16T08:43:53.764Z,10.65
2023-04-16T08:48:59.009Z,10.77
2023-04-16T08:54:08.702Z,11.57
2023-04-16T08:59:11.441Z,10.25
2023-04-16T09:04:14.925Z,10.13
2023-04-16T09:09:18.117Z,9.55
2023-04-16T09:14:20.798Z,10.70
2023-04-16T09:19:23.593Z,8.65
2023-04-16T09:24:26.062Z,11.35
2023-04-16T09:29:36.272Z,12.68
2023-04-16T09:34:56.200Z,10.80
2023-04-16T09:39:59.915Z,8.93
2023-04-16T09:45:05.510Z,11.38
2023-04-16T09:50:11.268Z,9.85
2023-04-16T09:55:14.667Z,10.77
2023-04-16T10:00:18.572Z,13.52
2023-04-16T10:05:20.716Z,12.05
2023-04-16T10:10:23.438Z,10.88
2023-04-16T10:15:25.666Z,10.98
2023-04-16T10:20:28.250Z,12.20
2023-04-16T10:25:31.159Z,11.18
2023-04-16T10:30:33.447Z,9.10
2023-04-16T10:35:40.382Z,11.15
2023-04-16T10:40:44.911Z,10.98
2023-04-16T10:45:48.017Z,10.73
2023-04-16T10:50:57.961Z,11.73
2023-04-16T10:56:03.174Z,12.00
2023-04-16T11:01:16.819Z,11.70
2023-04-16T11:06:26.494Z,10.73
2023-04-16T11:11:38.443Z,11.60
2023-04-16T11:16:41.105Z,10.60
2023-04-16T11:21:45.161Z,11.85
2023-04-16T11:26:51.753Z,10.52
2023-04-16T11:31:55.231Z,10.05
2023-04-16T11:36:57.643Z,8.63
2023-04-16T11:41:59.870Z,10.80
2023-04-16T11:47:06.160Z,10.43
2023-04-16T11:52:08.612Z,10.60
2023-04-16T11:57:12.585Z,10.25
2023-04-16T12:02:14.789Z,11.50
2023-04-16T12:07:17.027Z,11.13
2023-04-16T12:12:31.186Z,11.32
2023-04-16T12:17:35.518Z,11.48
2023-04-16T12:22:39.563Z,13.73
2023-04-16T12:27:42.321Z,11.55
2023-04-16T12:32:46.058Z,13.57
2023-04-16T12:37:48.195Z,13.77
2023-04-16T12:42:50.336Z,12.23
2023-04-16T12:47:52.417Z,12.20
2023-04-16T12:52:55.690Z,12.35
2023-04-16T12:57:58.052Z,12.73
2023-04-16T13:03:00.415Z,11.80
2023-04-16T13:08:02.701Z,13.50
2023-04-16T13:13:05.492Z,13.95
2023-04-16T13:18:07.644Z,13.88
2023-04-16T13:23:09.805Z,11.55
2023-04-16T13:28:11.840Z,13.00
2023-04-16T13:33:14.049Z,14.18
2023-04-16T13:38:16.693Z,14.02
2023-04-16T13:43:19.066Z,14.48
2023-04-16T13:48:21.343Z,14.32
2023-04-16T13:53:23.361Z,14.25
2023-04-16T13:58:25.979Z,14.57
2023-04-16T14:03:28.202Z,13.98
2023-04-16T14:08:31.034Z,14.52
2023-04-16T14:13:33.253Z,13.98
2023-04-16T14:18:35.895Z,15.07
2023-04-16T14:23:37.888Z,14.82
2023-04-16T14:28:41.065Z,13.85
2023-04-16T14:33:43.617Z,12.10
2023-04-16T14:38:47.481Z,14.00
2023-04-16T14:43:49.590Z,12.82
2023-04-16T14:48:51.747Z,12.23
2023-04-16T14:53:54.761Z,23.52
2023-04-16T14:58:56.791Z,12.43
2023-04-16T15:04:01.464Z,14.32
2023-04-16T15:09:04.370Z,14.32
2023-04-16T15:14:06.899Z,14.50
2023-04-16T15:19:09.221Z,14.50
2023-04-16T15:24:12.078Z,14.13
2023-04-16T15:29:14.391Z,16.35
2023-04-16T15:34:16.412Z,14.32
2023-04-16T15:39:18.507Z,16.65
2023-04-16T15:44:20.606Z,16.42
2023-04-16T15:49:23.295Z,15.60
2023-04-16T15:54:25.349Z,11.75
2023-04-16T15:59:27.556Z,17.52
2023-04-16T16:04:29.762Z,17.35
2023-04-16T16:09:31.969Z,18.98
2023-04-16T16:14:34.858Z,17.05
2023-04-16T16:19:36.986Z,18.20
2023-04-16T16:24:39.330Z,17.58
2023-04-16T16:29:41.555Z,17.25
2023-04-16T16:34:43.703Z,28.05
2023-04-16T16:39:45.924Z,18.17
2023-04-16T16:44:48.742Z,19.65
2023-04-16T16:49:51.223Z,19.88
2023-04-16T16:54:54.242Z,17.13
2023-04-16T16:59:56.209Z,16.63
2023-04-16T17:04:58.980Z,17.25
2023-04-16T17:10:03.655Z,17.25
2023-04-16T17:15:08.004Z,14.40
2023-04-16T17:20:12.173Z,14.55
2023-04-16T17:25:14.298Z,16.58
2023-04-16T17:30:16.810Z,15.05
2023-04-16T17:35:19.164Z,13.95
2023-04-16T17:40:21.230Z,17.52
2023-04-16T17:45:23.308Z,15.60
2023-04-16T17:50:27.196Z,18.52
2023-04-16T17:55:30.649Z,17.50
2023-04-16T18:00:32.733Z,16.23
2023-04-16T18:05:34.901Z,18.30
2023-04-16T18:10:38.584Z,18.90
2023-04-16T18:15:41.529Z,16.35
2023-04-16T18:20:43.617Z,16.58
2023-04-16T18:25:45.590Z,18.98
2023-04-16T18:30:47.666Z,18.15
2023-04-16T18:35:51.813Z,18.33
2023-04-16T18:40:53.772Z,17.45
2023-04-16T18:45:56.007Z,17.58
2023-04-16T18:50:58.449Z,18.02
2023-04-16T18:56:00.831Z,19.73
2023-04-16T19:01:03.726Z,19.02
2023-04-16T19:06:06.380Z,20.88
2023-04-16T19:11:08.558Z,18.98
2023-04-16T19:16:12.224Z,20.15
2023-04-16T19:21:14.382Z,20.15
2023-04-16T19:26:16.655Z,19.38
2023-04-16T19:31:18.740Z,20.30
2023-04-16T19:36:20.857Z,19.48
2023-04-16T19:41:23.082Z,20.02
2023-04-16T19:46:25.233Z,18.90
2023-04-16T19:51:27.457Z,19.70
2023-04-16T19:56:29.525Z,19.90
2023-04-16T20:01:31.616Z,20.23
2023-04-16T20:06:33.774Z,19.00
2023-04-16T20:11:36.085Z,21.85
2023-04-16T20:16:38.649Z,22.17
2023-04-16T20:21:40.968Z,19.55
2023-04-16T20:26:43.348Z,20.08
2023-04-16T20:31:46.153Z,20.80
2023-04-16T20:36:48.507Z,23.52
2023-04-16T20:41:56.956Z,21.17
2023-04-16T20:46:59.498Z,20.95
2023-04-16T20:52:02.442Z,20.88
2023-04-16T20:57:05.085Z,21.25
2023-04-16T21:02:07.655Z,23.77
2023-04-16T21:07:09.820Z,23.45
2023-04-16T21:12:11.820Z,22.83
2023-04-16T21:17:13.903Z,23.10
2023-04-16T21:22:15.971Z,24.23
2023-04-16T21:27:18.058Z,24.60
2023-04-16T21:32:20.134Z,22.52
2023-04-16T21:37:22.187Z,23.67
2023-04-16T21:42:24.194Z,24.33
2023-04-16T21:47:26.288Z,27.73
2023-04-16T21:52:28.368Z,27.23
2023-04-16T21:57:30.464Z,28.02
2023-04-16T22:02:34.000Z,27.73
2023-04-16T22:07:36.702Z,25.63
2023-04-16T22:12:39.824Z,25.85
2023-04-16T22:17:42.290Z,29.17
2023-04-16T22:22:44.368Z,26.30
2023-04-16T22:27:46.405Z,27.70
2023-04-16T22:32:48.501Z,26.95
2023-04-16T22:37:50.747Z,25.00
2023-04-16T22:42:52.818Z,24.77
2023-04-16T22:47:54.948Z,22.90
2023-04-16T22:52:57.023Z,23.45
2023-04-16T22:57:59.076Z,23.15
2023-04-16T23:03:01.219Z,22.80
2023-04-16T23:08:03.453Z,22.08
2023-04-16T23:13:05.635Z,23.67
2023-04-16T23:18:07.686Z,23.02
2023-04-16T23:23:09.850Z,23.73
2023-04-16T23:28:11.903Z,26.20
2023-04-16T23:33:13.925Z,24.45
2023-04-16T23:38:16.168Z,26.88
2023-04-16T23:43:18.218Z,26.55
2023-04-16T23:48:20.349Z,25.67
2023-04-16T23:53:22.338Z,26.70
2023-04-16T23:58:24.366Z,26.38
